sensor_id;sensor_type;location;lat;lon;timestamp;P1;durP1;ratioP1;P2;durP2;ratioP2
6356;SDS011;3211;53.452;-2.264;2022-09-09T00:01:23;4.90;;;3.30;;
6356;SDS011;3211;53.452;-2.264;2022-09-09T00:04:15;9.23;;;3.30;;
6356;SDS011;3211;53.452;-2.264;2022-09-09T00:07:03;4.47;;;3.33;;
6356;SDS011;3211;53.452;-2.264;2022-09-09T00:09:53;8.83;;;3.40;;
6356;SDS011;3211;53.452;-2.264;2022-09-09T00:12:42;5.37;;;2.80;;
6356;SDS011;3211;53.452;-2.264;2022-09-09T00:15:34;4.43;;;2.50;;
6356;SDS011;3211;53.452;-2.264;2022-09-09T00:18:23;5.43;;;2.73;;
6356;SDS011;3211;53.452;-2.264;2022-09-09T00:21:11;5.63;;;3.27;;
6356;SDS011;3211;53.452;-2.264;2022-09-09T00:23:55;3.20;;;2.63;;
6356;SDS011;3211;53.452;-2.264;2022-09-09T00:26:38;4.70;;;3.00;;
6356;SDS011;3211;53.452;-2.264;2022-09-09T00:29:25;5.63;;;3.37;;
6356;SDS011;3211;53.452;-2.264;2022-09-09T00:32:16;4.70;;;2.90;;
6356;SDS011;3211;53.452;-2.264;2022-09-09T00:35:01;5.50;;;3.40;;
6356;SDS011;3211;53.452;-2.264;2022-09-09T00:37:46;4.57;;;3.67;;
6356;SDS011;3211;53.452;-2.264;2022-09-09T00:40:32;5.40;;;2.83;;
6356;SDS011;3211;53.452;-2.264;2022-09-09T00:43:23;7.00;;;3.20;;
6356;SDS011;3211;53.452;-2.264;2022-09-09T00:46:19;7.50;;;2.80;;
6356;SDS011;3211;53.452;-2.264;2022-09-09T00:49:12;4.40;;;3.20;;
6356;SDS011;3211;53.452;-2.264;2022-09-09T00:52:06;4.77;;;3.57;;
6356;SDS011;3211;53.452;-2.264;2022-09-09T00:55:01;5.00;;;3.00;;
6356;SDS011;3211;53.452;-2.264;2022-09-09T00:57:47;5.33;;;3.43;;
6356;SDS011;3211;53.452;-2.264;2022-09-09T01:00:34;7.40;;;3.50;;
6356;SDS011;3211;53.452;-2.264;2022-09-09T01:03:25;8.03;;;4.00;;
6356;SDS011;3211;53.452;-2.264;2022-09-09T01:06:15;7.07;;;3.77;;
6356;SDS011;3211;53.452;-2.264;2022-09-09T01:09:16;5.57;;;3.83;;
6356;SDS011;3211;53.452;-2.264;2022-09-09T01:12:07;6.53;;;3.90;;
6356;SDS011;3211;53.452;-2.264;2022-09-09T01:14:54;8.20;;;4.50;;
6356;SDS011;3211;53.452;-2.264;2022-09-09T01:17:48;7.20;;;4.10;;
6356;SDS011;3211;53.452;-2.264;2022-09-09T01:20:37;8.63;;;5.33;;
6356;SDS011;3211;53.452;-2.264;2022-09-09T01:23:46;10.43;;;6.07;;
6356;SDS011;3211;53.452;-2.264;2022-09-09T01:26:50;8.10;;;5.20;;
6356;SDS011;3211;53.452;-2.264;2022-09-09T01:29:36;8.27;;;6.10;;
6356;SDS011;3211;53.452;-2.264;2022-09-09T01:32:38;8.33;;;5.57;;
6356;SDS011;3211;53.452;-2.264;2022-09-09T01:35:26;7.10;;;5.70;;
6356;SDS011;3211;53.452;-2.264;2022-09-09T01:38:14;11.03;;;7.50;;
6356;SDS011;3211;53.452;-2.264;2022-09-09T01:40:56;11.53;;;6.40;;
6356;SDS011;3211;53.452;-2.264;2022-09-09T01:43:40;8.90;;;6.90;;
6356;SDS011;3211;53.452;-2.264;2022-09-09T01:46:22;9.17;;;6.87;;
6356;SDS011;3211;53.452;-2.264;2022-09-09T01:49:05;10.93;;;7.53;;
6356;SDS011;3211;53.452;-2.264;2022-09-09T01:51:51;10.00;;;6.70;;
6356;SDS011;3211;53.452;-2.264;2022-09-09T01:54:35;12.40;;;8.27;;
6356;SDS011;3211;53.452;-2.264;2022-09-09T01:57:18;9.93;;;6.80;;
6356;SDS011;3211;53.452;-2.264;2022-09-09T02:00:05;11.47;;;7.83;;
6356;SDS011;3211;53.452;-2.264;2022-09-09T02:02:52;9.23;;;6.60;;
6356;SDS011;3211;53.452;-2.264;2022-09-09T02:05:40;11.10;;;7.13;;
6356;SDS011;3211;53.452;-2.264;2022-09-09T02:08:29;8.60;;;7.10;;
6356;SDS011;3211;53.452;-2.264;2022-09-09T02:11:19;12.50;;;8.73;;
6356;SDS011;3211;53.452;-2.264;2022-09-09T02:14:05;14.47;;;8.20;;
6356;SDS011;3211;53.452;-2.264;2022-09-09T02:16:54;11.80;;;8.80;;
6356;SDS011;3211;53.452;-2.264;2022-09-09T02:19:41;14.20;;;9.40;;
6356;SDS011;3211;53.452;-2.264;2022-09-09T02:22:28;17.40;;;9.80;;
6356;SDS011;3211;53.452;-2.264;2022-09-09T02:25:14;11.07;;;9.20;;
6356;SDS011;3211;53.452;-2.264;2022-09-09T02:27:59;12.97;;;9.70;;
6356;SDS011;3211;53.452;-2.264;2022-09-09T02:30:42;16.17;;;9.70;;
6356;SDS011;3211;53.452;-2.264;2022-09-09T02:33:29;18.57;;;10.47;;
6356;SDS011;3211;53.452;-2.264;2022-09-09T02:36:15;14.83;;;9.57;;
6356;SDS011;3211;53.452;-2.264;2022-09-09T02:38:58;14.90;;;10.90;;
6356;SDS011;3211;53.452;-2.264;2022-09-09T02:41:42;15.07;;;11.13;;
6356;SDS011;3211;53.452;-2.264;2022-09-09T02:44:24;15.30;;;10.20;;
6356;SDS011;3211;53.452;-2.264;2022-09-09T02:47:25;17.43;;;10.83;;
6356;SDS011;3211;53.452;-2.264;2022-09-09T02:50:13;14.17;;;11.10;;
6356;SDS011;3211;53.452;-2.264;2022-09-09T02:53:04;13.07;;;10.80;;
6356;SDS011;3211;53.452;-2.264;2022-09-09T02:55:52;13.90;;;10.70;;
6356;SDS011;3211;53.452;-2.264;2022-09-09T02:58:38;12.63;;;10.43;;
6356;SDS011;3211;53.452;-2.264;2022-09-09T03:01:21;12.00;;;9.77;;
6356;SDS011;3211;53.452;-2.264;2022-09-09T03:04:03;15.73;;;10.63;;
6356;SDS011;3211;53.452;-2.264;2022-09-09T03:06:47;15.37;;;11.07;;
6356;SDS011;3211;53.452;-2.264;2022-09-09T03:09:29;14.80;;;9.83;;
6356;SDS011;3211;53.452;-2.264;2022-09-09T03:12:12;12.23;;;9.80;;
6356;SDS011;3211;53.452;-2.264;2022-09-09T03:14:54;13.40;;;10.07;;
6356;SDS011;3211;53.452;-2.264;2022-09-09T03:17:36;13.20;;;9.83;;
6356;SDS011;3211;53.452;-2.264;2022-09-09T03:20:18;11.10;;;8.93;;
6356;SDS011;3211;53.452;-2.264;2022-09-09T03:23:02;11.60;;;9.27;;
6356;SDS011;3211;53.452;-2.264;2022-09-09T03:25:46;15.77;;;9.60;;
6356;SDS011;3211;53.452;-2.264;2022-09-09T03:28:29;11.77;;;9.63;;
6356;SDS011;3211;53.452;-2.264;2022-09-09T03:31:11;13.60;;;9.17;;
6356;SDS011;3211;53.452;-2.264;2022-09-09T03:33:53;13.17;;;8.93;;
6356;SDS011;3211;53.452;-2.264;2022-09-09T03:36:35;11.00;;;8.60;;
6356;SDS011;3211;53.452;-2.264;2022-09-09T03:39:19;13.20;;;9.07;;
6356;SDS011;3211;53.452;-2.264;2022-09-09T03:42:01;10.37;;;8.80;;
6356;SDS011;3211;53.452;-2.264;2022-09-09T03:44:44;13.10;;;9.63;;
6356;SDS011;3211;53.452;-2.264;2022-09-09T03:47:32;11.63;;;9.43;;
6356;SDS011;3211;53.452;-2.264;2022-09-09T03:50:14;13.20;;;9.80;;
6356;SDS011;3211;53.452;-2.264;2022-09-09T03:52:56;12.70;;;9.77;;
6356;SDS011;3211;53.452;-2.264;2022-09-09T03:55:40;9.70;;;8.50;;
6356;SDS011;3211;53.452;-2.264;2022-09-09T03:58:26;13.93;;;8.20;;
6356;SDS011;3211;53.452;-2.264;2022-09-09T04:01:09;11.83;;;8.03;;
6356;SDS011;3211;53.452;-2.264;2022-09-09T04:03:53;11.43;;;8.47;;
6356;SDS011;3211;53.452;-2.264;2022-09-09T04:06:38;14.60;;;8.57;;
6356;SDS011;3211;53.452;-2.264;2022-09-09T04:09:20;9.33;;;8.33;;
6356;SDS011;3211;53.452;-2.264;2022-09-09T04:12:03;13.00;;;8.20;;
6356;SDS011;3211;53.452;-2.264;2022-09-09T04:14:46;9.87;;;7.87;;
6356;SDS011;3211;53.452;-2.264;2022-09-09T04:17:28;12.20;;;8.83;;
6356;SDS011;3211;53.452;-2.264;2022-09-09T04:20:10;9.87;;;8.50;;
6356;SDS011;3211;53.452;-2.264;2022-09-09T04:22:52;13.17;;;9.27;;
6356;SDS011;3211;53.452;-2.264;2022-09-09T04:25:34;11.83;;;9.70;;
6356;SDS011;3211;53.452;-2.264;2022-09-09T04:28:18;15.73;;;9.80;;
6356;SDS011;3211;53.452;-2.264;2022-09-09T04:31:05;12.77;;;10.17;;
6356;SDS011;3211;53.452;-2.264;2022-09-09T04:33:49;12.83;;;9.73;;
6356;SDS011;3211;53.452;-2.264;2022-09-09T04:36:31;18.10;;;10.03;;
6356;SDS011;3211;53.452;-2.264;2022-09-09T04:39:13;11.90;;;8.83;;
6356;SDS011;3211;53.452;-2.264;2022-09-09T04:41:55;11.57;;;8.73;;
6356;SDS011;3211;53.452;-2.264;2022-09-09T04:44:39;11.20;;;8.73;;
6356;SDS011;3211;53.452;-2.264;2022-09-09T04:47:21;12.07;;;8.60;;
6356;SDS011;3211;53.452;-2.264;2022-09-09T04:50:03;9.60;;;8.60;;
6356;SDS011;3211;53.452;-2.264;2022-09-09T04:52:45;11.37;;;8.90;;
6356;SDS011;3211;53.452;-2.264;2022-09-09T04:55:28;11.90;;;9.03;;
6356;SDS011;3211;53.452;-2.264;2022-09-09T04:58:10;11.27;;;8.60;;
6356;SDS011;3211;53.452;-2.264;2022-09-09T05:00:53;12.40;;;8.30;;
6356;SDS011;3211;53.452;-2.264;2022-09-09T05:03:36;13.50;;;9.13;;
6356;SDS011;3211;53.452;-2.264;2022-09-09T05:06:19;12.87;;;9.97;;
6356;SDS011;3211;53.452;-2.264;2022-09-09T05:09:02;13.73;;;9.10;;
6356;SDS011;3211;53.452;-2.264;2022-09-09T05:11:44;10.80;;;8.03;;
6356;SDS011;3211;53.452;-2.264;2022-09-09T05:14:26;9.50;;;7.40;;
6356;SDS011;3211;53.452;-2.264;2022-09-09T05:17:09;9.37;;;8.27;;
6356;SDS011;3211;53.452;-2.264;2022-09-09T05:19:53;9.60;;;8.60;;
6356;SDS011;3211;53.452;-2.264;2022-09-09T05:22:35;9.77;;;8.03;;
6356;SDS011;3211;53.452;-2.264;2022-09-09T05:25:17;10.10;;;8.50;;
6356;SDS011;3211;53.452;-2.264;2022-09-09T05:27:59;10.77;;;8.20;;
6356;SDS011;3211;53.452;-2.264;2022-09-09T05:30:42;11.40;;;8.07;;
6356;SDS011;3211;53.452;-2.264;2022-09-09T05:33:25;9.27;;;7.90;;
6356;SDS011;3211;53.452;-2.264;2022-09-09T05:36:08;12.50;;;7.73;;
6356;SDS011;3211;53.452;-2.264;2022-09-09T05:38:53;12.20;;;8.20;;
6356;SDS011;3211;53.452;-2.264;2022-09-09T05:41:35;8.77;;;7.50;;
6356;SDS011;3211;53.452;-2.264;2022-09-09T05:44:17;9.27;;;7.47;;
6356;SDS011;3211;53.452;-2.264;2022-09-09T05:46:59;9.50;;;6.70;;
6356;SDS011;3211;53.452;-2.264;2022-09-09T05:49:42;8.80;;;6.90;;
6356;SDS011;3211;53.452;-2.264;2022-09-09T05:52:24;7.97;;;7.17;;
6356;SDS011;3211;53.452;-2.264;2022-09-09T05:55:07;8.67;;;6.93;;
6356;SDS011;3211;53.452;-2.264;2022-09-09T05:57:49;8.20;;;6.27;;
6356;SDS011;3211;53.452;-2.264;2022-09-09T06:00:32;8.67;;;7.30;;
6356;SDS011;3211;53.452;-2.264;2022-09-09T06:03:13;7.87;;;6.70;;
6356;SDS011;3211;53.452;-2.264;2022-09-09T06:05:59;9.00;;;6.37;;
6356;SDS011;3211;53.452;-2.264;2022-09-09T06:08:42;7.77;;;7.00;;
6356;SDS011;3211;53.452;-2.264;2022-09-09T06:11:26;7.57;;;6.80;;
6356;SDS011;3211;53.452;-2.264;2022-09-09T06:14:11;8.57;;;5.73;;
6356;SDS011;3211;53.452;-2.264;2022-09-09T06:16:53;8.80;;;6.47;;
6356;SDS011;3211;53.452;-2.264;2022-09-09T06:19:35;9.67;;;6.53;;
6356;SDS011;3211;53.452;-2.264;2022-09-09T06:22:18;8.43;;;5.53;;
6356;SDS011;3211;53.452;-2.264;2022-09-09T06:25:00;9.30;;;6.07;;
6356;SDS011;3211;53.452;-2.264;2022-09-09T06:27:43;9.17;;;5.27;;
6356;SDS011;3211;53.452;-2.264;2022-09-09T06:30:29;5.80;;;4.80;;
6356;SDS011;3211;53.452;-2.264;2022-09-09T06:33:11;7.10;;;5.40;;
6356;SDS011;3211;53.452;-2.264;2022-09-09T06:35:53;7.57;;;5.37;;
6356;SDS011;3211;53.452;-2.264;2022-09-09T06:38:38;6.87;;;5.23;;
6356;SDS011;3211;53.452;-2.264;2022-09-09T06:41:21;9.13;;;4.73;;
6356;SDS011;3211;53.452;-2.264;2022-09-09T06:44:04;7.37;;;5.00;;
6356;SDS011;3211;53.452;-2.264;2022-09-09T06:46:46;5.80;;;5.00;;
6356;SDS011;3211;53.452;-2.264;2022-09-09T06:49:29;8.67;;;5.50;;
6356;SDS011;3211;53.452;-2.264;2022-09-09T06:52:11;6.43;;;4.83;;
6356;SDS011;3211;53.452;-2.264;2022-09-09T06:54:54;6.13;;;4.57;;
6356;SDS011;3211;53.452;-2.264;2022-09-09T06:57:38;9.00;;;5.30;;
6356;SDS011;3211;53.452;-2.264;2022-09-09T07:00:20;8.40;;;4.97;;
6356;SDS011;3211;53.452;-2.264;2022-09-09T07:03:02;8.03;;;4.63;;
6356;SDS011;3211;53.452;-2.264;2022-09-09T07:05:53;6.63;;;4.23;;
6356;SDS011;3211;53.452;-2.264;2022-09-09T07:08:36;8.30;;;4.50;;
6356;SDS011;3211;53.452;-2.264;2022-09-09T07:11:20;9.30;;;4.10;;
6356;SDS011;3211;53.452;-2.264;2022-09-09T07:14:03;6.50;;;4.60;;
6356;SDS011;3211;53.452;-2.264;2022-09-09T07:16:45;6.87;;;5.00;;
6356;SDS011;3211;53.452;-2.264;2022-09-09T07:19:27;7.67;;;5.50;;
6356;SDS011;3211;53.452;-2.264;2022-09-09T07:22:09;7.20;;;4.27;;
6356;SDS011;3211;53.452;-2.264;2022-09-09T07:24:51;8.40;;;4.60;;
6356;SDS011;3211;53.452;-2.264;2022-09-09T07:27:35;6.37;;;4.70;;
6356;SDS011;3211;53.452;-2.264;2022-09-09T07:30:17;8.30;;;4.20;;
6356;SDS011;3211;53.452;-2.264;2022-09-09T07:32:59;7.13;;;4.43;;
6356;SDS011;3211;53.452;-2.264;2022-09-09T07:35:42;8.70;;;4.70;;
6356;SDS011;3211;53.452;-2.264;2022-09-09T07:38:24;7.50;;;4.33;;
6356;SDS011;3211;53.452;-2.264;2022-09-09T07:41:07;7.07;;;4.80;;
6356;SDS011;3211;53.452;-2.264;2022-09-09T07:43:53;7.07;;;4.90;;
6356;SDS011;3211;53.452;-2.264;2022-09-09T07:46:36;11.40;;;5.10;;
6356;SDS011;3211;53.452;-2.264;2022-09-09T07:49:19;8.13;;;5.17;;
6356;SDS011;3211;53.452;-2.264;2022-09-09T07:52:03;8.37;;;4.50;;
6356;SDS011;3211;53.452;-2.264;2022-09-09T07:54:45;8.53;;;4.57;;
6356;SDS011;3211;53.452;-2.264;2022-09-09T07:57:27;7.00;;;4.60;;
6356;SDS011;3211;53.452;-2.264;2022-09-09T08:00:13;5.30;;;4.50;;
6356;SDS011;3211;53.452;-2.264;2022-09-09T08:02:55;5.33;;;4.33;;
6356;SDS011;3211;53.452;-2.264;2022-09-09T08:05:37;5.93;;;4.13;;
6356;SDS011;3211;53.452;-2.264;2022-09-09T08:08:20;10.30;;;4.57;;
6356;SDS011;3211;53.452;-2.264;2022-09-09T08:11:03;8.60;;;5.10;;
6356;SDS011;3211;53.452;-2.264;2022-09-09T08:13:47;5.90;;;4.40;;
6356;SDS011;3211;53.452;-2.264;2022-09-09T08:16:32;6.80;;;4.27;;
6356;SDS011;3211;53.452;-2.264;2022-09-09T08:19:16;14.80;;;4.03;;
6356;SDS011;3211;53.452;-2.264;2022-09-09T08:21:58;6.10;;;3.93;;
6356;SDS011;3211;53.452;-2.264;2022-09-09T08:24:41;6.80;;;4.03;;
6356;SDS011;3211;53.452;-2.264;2022-09-09T08:27:23;7.80;;;3.90;;
6356;SDS011;3211;53.452;-2.264;2022-09-09T08:30:06;6.10;;;3.83;;
6356;SDS011;3211;53.452;-2.264;2022-09-09T08:32:50;5.60;;;3.80;;
6356;SDS011;3211;53.452;-2.264;2022-09-09T08:35:32;5.77;;;2.93;;
6356;SDS011;3211;53.452;-2.264;2022-09-09T08:38:14;5.80;;;3.30;;
6356;SDS011;3211;53.452;-2.264;2022-09-09T08:40:57;7.13;;;3.37;;
6356;SDS011;3211;53.452;-2.264;2022-09-09T08:43:48;7.00;;;3.50;;
6356;SDS011;3211;53.452;-2.264;2022-09-09T08:46:42;4.10;;;3.40;;
6356;SDS011;3211;53.452;-2.264;2022-09-09T08:49:41;8.10;;;3.07;;
6356;SDS011;3211;53.452;-2.264;2022-09-09T08:52:42;7.87;;;2.97;;
6356;SDS011;3211;53.452;-2.264;2022-09-09T08:55:35;9.07;;;3.57;;
6356;SDS011;3211;53.452;-2.264;2022-09-09T08:58:23;10.20;;;4.10;;
6356;SDS011;3211;53.452;-2.264;2022-09-09T09:01:25;8.97;;;2.80;;
6356;SDS011;3211;53.452;-2.264;2022-09-09T09:04:31;8.27;;;3.27;;
6356;SDS011;3211;53.452;-2.264;2022-09-09T09:07:24;5.30;;;2.57;;
6356;SDS011;3211;53.452;-2.264;2022-09-09T09:10:17;5.60;;;2.50;;
6356;SDS011;3211;53.452;-2.264;2022-09-09T09:13:07;3.87;;;2.40;;
6356;SDS011;3211;53.452;-2.264;2022-09-09T09:15:57;4.47;;;3.10;;
6356;SDS011;3211;53.452;-2.264;2022-09-09T09:18:44;6.90;;;2.70;;
6356;SDS011;3211;53.452;-2.264;2022-09-09T09:21:31;8.27;;;2.83;;
6356;SDS011;3211;53.452;-2.264;2022-09-09T09:24:20;4.87;;;2.30;;
6356;SDS011;3211;53.452;-2.264;2022-09-09T09:27:08;3.83;;;2.60;;
6356;SDS011;3211;53.452;-2.264;2022-09-09T09:29:54;7.40;;;2.57;;
6356;SDS011;3211;53.452;-2.264;2022-09-09T09:32:39;4.63;;;2.53;;
6356;SDS011;3211;53.452;-2.264;2022-09-09T09:35:32;4.70;;;2.40;;
6356;SDS011;3211;53.452;-2.264;2022-09-09T09:38:16;2.73;;;2.47;;
6356;SDS011;3211;53.452;-2.264;2022-09-09T09:41:01;5.77;;;2.93;;
6356;SDS011;3211;53.452;-2.264;2022-09-09T09:43:53;4.03;;;2.60;;
6356;SDS011;3211;53.452;-2.264;2022-09-09T09:46:35;3.40;;;2.40;;
6356;SDS011;3211;53.452;-2.264;2022-09-09T09:49:17;6.70;;;2.93;;
6356;SDS011;3211;53.452;-2.264;2022-09-09T09:52:00;9.23;;;3.10;;
6356;SDS011;3211;53.452;-2.264;2022-09-09T09:54:42;6.67;;;3.17;;
6356;SDS011;3211;53.452;-2.264;2022-09-09T09:57:27;3.90;;;2.40;;
6356;SDS011;3211;53.452;-2.264;2022-09-09T10:00:12;4.90;;;2.40;;
6356;SDS011;3211;53.452;-2.264;2022-09-09T10:02:56;3.10;;;2.30;;
6356;SDS011;3211;53.452;-2.264;2022-09-09T10:05:44;4.43;;;1.90;;
6356;SDS011;3211;53.452;-2.264;2022-09-09T10:08:27;5.10;;;2.10;;
6356;SDS011;3211;53.452;-2.264;2022-09-09T10:11:16;2.90;;;1.90;;
6356;SDS011;3211;53.452;-2.264;2022-09-09T10:14:11;7.83;;;2.20;;
6356;SDS011;3211;53.452;-2.264;2022-09-09T10:17:04;6.30;;;3.07;;
6356;SDS011;3211;53.452;-2.264;2022-09-09T10:20:00;4.77;;;1.90;;
6356;SDS011;3211;53.452;-2.264;2022-09-09T10:22:58;3.20;;;2.23;;
6356;SDS011;3211;53.452;-2.264;2022-09-09T10:25:56;6.70;;;2.10;;
6356;SDS011;3211;53.452;-2.264;2022-09-09T10:29:05;4.60;;;2.50;;
6356;SDS011;3211;53.452;-2.264;2022-09-09T10:32:09;2.70;;;1.60;;
6356;SDS011;3211;53.452;-2.264;2022-09-09T10:35:19;5.17;;;2.20;;
6356;SDS011;3211;53.452;-2.264;2022-09-09T10:38:14;5.50;;;2.10;;
6356;SDS011;3211;53.452;-2.264;2022-09-09T10:41:00;3.60;;;2.00;;
6356;SDS011;3211;53.452;-2.264;2022-09-09T10:43:52;3.23;;;2.07;;
6356;SDS011;3211;53.452;-2.264;2022-09-09T10:46:51;5.57;;;2.50;;
6356;SDS011;3211;53.452;-2.264;2022-09-09T10:53:17;2.40;;;2.13;;
6356;SDS011;3211;53.452;-2.264;2022-09-09T10:56:06;7.60;;;2.50;;
6356;SDS011;3211;53.452;-2.264;2022-09-09T10:58:52;3.27;;;2.20;;
6356;SDS011;3211;53.452;-2.264;2022-09-09T11:01:39;4.30;;;2.00;;
6356;SDS011;3211;53.452;-2.264;2022-09-09T11:04:27;5.50;;;3.07;;
6356;SDS011;3211;53.452;-2.264;2022-09-09T11:07:16;5.33;;;2.80;;
6356;SDS011;3211;53.452;-2.264;2022-09-09T11:10:11;6.93;;;3.20;;
6356;SDS011;3211;53.452;-2.264;2022-09-09T11:13:02;6.17;;;2.97;;
6356;SDS011;3211;53.452;-2.264;2022-09-09T11:15:49;6.00;;;3.03;;
6356;SDS011;3211;53.452;-2.264;2022-09-09T11:18:34;6.23;;;2.93;;
6356;SDS011;3211;53.452;-2.264;2022-09-09T11:21:23;7.50;;;3.43;;
6356;SDS011;3211;53.452;-2.264;2022-09-09T11:24:10;6.60;;;3.40;;
6356;SDS011;3211;53.452;-2.264;2022-09-09T11:26:58;6.33;;;3.77;;
6356;SDS011;3211;53.452;-2.264;2022-09-09T11:29:49;6.00;;;3.50;;
6356;SDS011;3211;53.452;-2.264;2022-09-09T11:36:10;8.93;;;4.67;;
6356;SDS011;3211;53.452;-2.264;2022-09-09T11:39:09;8.33;;;3.60;;
6356;SDS011;3211;53.452;-2.264;2022-09-09T11:42:05;5.70;;;3.23;;
6356;SDS011;3211;53.452;-2.264;2022-09-09T11:44:48;6.50;;;3.00;;
6356;SDS011;3211;53.452;-2.264;2022-09-09T11:47:31;6.40;;;3.40;;
6356;SDS011;3211;53.452;-2.264;2022-09-09T11:50:26;4.43;;;3.20;;
6356;SDS011;3211;53.452;-2.264;2022-09-09T11:53:20;8.73;;;3.13;;
6356;SDS011;3211;53.452;-2.264;2022-09-09T11:56:08;6.47;;;2.93;;
6356;SDS011;3211;53.452;-2.264;2022-09-09T12:02:01;7.23;;;3.00;;
6356;SDS011;3211;53.452;-2.264;2022-09-09T12:04:46;3.80;;;2.60;;
6356;SDS011;3211;53.452;-2.264;2022-09-09T12:07:36;5.30;;;3.20;;
6356;SDS011;3211;53.452;-2.264;2022-09-09T12:10:23;5.43;;;2.80;;
6356;SDS011;3211;53.452;-2.264;2022-09-09T12:13:16;8.20;;;2.87;;
6356;SDS011;3211;53.452;-2.264;2022-09-09T12:16:00;4.70;;;2.90;;
6356;SDS011;3211;53.452;-2.264;2022-09-09T12:18:45;5.93;;;2.90;;
6356;SDS011;3211;53.452;-2.264;2022-09-09T12:21:29;6.60;;;3.30;;
6356;SDS011;3211;53.452;-2.264;2022-09-09T12:24:20;7.03;;;3.50;;
6356;SDS011;3211;53.452;-2.264;2022-09-09T12:27:11;8.80;;;5.20;;
6356;SDS011;3211;53.452;-2.264;2022-09-09T12:30:03;8.33;;;4.67;;
6356;SDS011;3211;53.452;-2.264;2022-09-09T12:32:58;8.13;;;4.43;;
6356;SDS011;3211;53.452;-2.264;2022-09-09T12:35:43;8.10;;;3.23;;
6356;SDS011;3211;53.452;-2.264;2022-09-09T12:38:29;6.20;;;3.03;;
6356;SDS011;3211;53.452;-2.264;2022-09-09T12:41:20;4.97;;;2.50;;
6356;SDS011;3211;53.452;-2.264;2022-09-09T12:44:04;4.53;;;2.73;;
6356;SDS011;3211;53.452;-2.264;2022-09-09T12:46:50;4.03;;;2.83;;
6356;SDS011;3211;53.452;-2.264;2022-09-09T12:49:34;6.37;;;2.60;;
6356;SDS011;3211;53.452;-2.264;2022-09-09T12:52:20;3.70;;;2.37;;
6356;SDS011;3211;53.452;-2.264;2022-09-09T12:55:07;11.20;;;2.60;;
6356;SDS011;3211;53.452;-2.264;2022-09-09T12:57:57;4.17;;;2.97;;
6356;SDS011;3211;53.452;-2.264;2022-09-09T13:00:48;5.63;;;3.63;;
6356;SDS011;3211;53.452;-2.264;2022-09-09T13:03:33;3.97;;;2.83;;
6356;SDS011;3211;53.452;-2.264;2022-09-09T13:06:28;7.40;;;3.00;;
6356;SDS011;3211;53.452;-2.264;2022-09-09T13:09:10;6.27;;;2.80;;
6356;SDS011;3211;53.452;-2.264;2022-09-09T13:11:53;5.43;;;3.40;;
6356;SDS011;3211;53.452;-2.264;2022-09-09T13:14:38;6.10;;;3.00;;
6356;SDS011;3211;53.452;-2.264;2022-09-09T13:17:21;5.13;;;3.30;;
6356;SDS011;3211;53.452;-2.264;2022-09-09T13:20:14;2.73;;;2.53;;
6356;SDS011;3211;53.452;-2.264;2022-09-09T13:22:57;5.27;;;3.00;;
6356;SDS011;3211;53.452;-2.264;2022-09-09T13:25:39;4.27;;;2.97;;
6356;SDS011;3211;53.452;-2.264;2022-09-09T13:28:24;3.83;;;3.07;;
6356;SDS011;3211;53.452;-2.264;2022-09-09T13:31:18;3.27;;;2.97;;
6356;SDS011;3211;53.452;-2.264;2022-09-09T13:34:10;5.00;;;3.20;;
6356;SDS011;3211;53.452;-2.264;2022-09-09T13:36:56;4.00;;;3.10;;
6356;SDS011;3211;53.452;-2.264;2022-09-09T13:39:50;5.27;;;4.07;;
6356;SDS011;3211;53.452;-2.264;2022-09-09T13:42:36;3.60;;;2.70;;
6356;SDS011;3211;53.452;-2.264;2022-09-09T13:45:23;7.03;;;2.90;;
6356;SDS011;3211;53.452;-2.264;2022-09-09T13:48:10;4.17;;;3.20;;
6356;SDS011;3211;53.452;-2.264;2022-09-09T13:50:54;5.60;;;3.63;;
6356;SDS011;3211;53.452;-2.264;2022-09-09T13:53:39;4.50;;;2.70;;
6356;SDS011;3211;53.452;-2.264;2022-09-09T13:56:20;5.00;;;3.47;;
6356;SDS011;3211;53.452;-2.264;2022-09-09T13:59:03;3.50;;;3.03;;
6356;SDS011;3211;53.452;-2.264;2022-09-09T14:01:46;2.60;;;2.40;;
6356;SDS011;3211;53.452;-2.264;2022-09-09T14:04:29;2.73;;;2.20;;
6356;SDS011;3211;53.452;-2.264;2022-09-09T14:07:11;2.70;;;1.30;;
6356;SDS011;3211;53.452;-2.264;2022-09-09T14:09:56;4.13;;;1.40;;
6356;SDS011;3211;53.452;-2.264;2022-09-09T14:12:40;4.70;;;1.83;;
6356;SDS011;3211;53.452;-2.264;2022-09-09T14:15:22;0.90;;;0.80;;
6356;SDS011;3211;53.452;-2.264;2022-09-09T14:18:04;0.80;;;0.70;;
6356;SDS011;3211;53.452;-2.264;2022-09-09T14:20:46;0.80;;;0.70;;
6356;SDS011;3211;53.452;-2.264;2022-09-09T14:23:28;0.80;;;0.70;;
6356;SDS011;3211;53.452;-2.264;2022-09-09T14:26:11;0.90;;;0.70;;
6356;SDS011;3211;53.452;-2.264;2022-09-09T14:28:53;0.80;;;0.73;;
6356;SDS011;3211;53.452;-2.264;2022-09-09T14:31:36;0.90;;;0.80;;
6356;SDS011;3211;53.452;-2.264;2022-09-09T14:34:18;1.27;;;1.17;;
6356;SDS011;3211;53.452;-2.264;2022-09-09T14:37:00;0.80;;;0.80;;
6356;SDS011;3211;53.452;-2.264;2022-09-09T14:39:42;0.80;;;0.80;;
6356;SDS011;3211;53.452;-2.264;2022-09-09T14:42:25;0.90;;;0.80;;
6356;SDS011;3211;53.452;-2.264;2022-09-09T14:45:09;0.90;;;0.80;;
6356;SDS011;3211;53.452;-2.264;2022-09-09T14:47:52;0.80;;;0.80;;
6356;SDS011;3211;53.452;-2.264;2022-09-09T14:50:34;0.80;;;0.80;;
6356;SDS011;3211;53.452;-2.264;2022-09-09T14:53:20;0.80;;;0.80;;
6356;SDS011;3211;53.452;-2.264;2022-09-09T14:56:05;0.80;;;0.70;;
6356;SDS011;3211;53.452;-2.264;2022-09-09T14:58:49;0.90;;;0.80;;
6356;SDS011;3211;53.452;-2.264;2022-09-09T15:01:33;0.80;;;0.80;;
6356;SDS011;3211;53.452;-2.264;2022-09-09T15:04:15;0.80;;;0.80;;
6356;SDS011;3211;53.452;-2.264;2022-09-09T15:06:58;0.80;;;0.80;;
6356;SDS011;3211;53.452;-2.264;2022-09-09T15:09:40;0.90;;;0.80;;
6356;SDS011;3211;53.452;-2.264;2022-09-09T15:12:22;0.80;;;0.80;;
6356;SDS011;3211;53.452;-2.264;2022-09-09T15:15:06;0.90;;;0.80;;
6356;SDS011;3211;53.452;-2.264;2022-09-09T15:17:49;0.80;;;0.73;;
6356;SDS011;3211;53.452;-2.264;2022-09-09T15:20:31;0.80;;;0.80;;
6356;SDS011;3211;53.452;-2.264;2022-09-09T15:23:13;0.80;;;0.70;;
6356;SDS011;3211;53.452;-2.264;2022-09-09T15:25:55;0.80;;;0.70;;
6356;SDS011;3211;53.452;-2.264;2022-09-09T15:28:37;0.80;;;0.80;;
6356;SDS011;3211;53.452;-2.264;2022-09-09T15:31:21;0.80;;;0.80;;
6356;SDS011;3211;53.452;-2.264;2022-09-09T15:34:05;0.80;;;0.80;;
6356;SDS011;3211;53.452;-2.264;2022-09-09T15:36:48;0.80;;;0.80;;
6356;SDS011;3211;53.452;-2.264;2022-09-09T15:39:30;0.80;;;0.80;;
6356;SDS011;3211;53.452;-2.264;2022-09-09T15:42:12;0.90;;;0.80;;
6356;SDS011;3211;53.452;-2.264;2022-09-09T15:44:54;0.80;;;0.80;;
6356;SDS011;3211;53.452;-2.264;2022-09-09T15:47:38;1.63;;;1.50;;
6356;SDS011;3211;53.452;-2.264;2022-09-09T15:50:20;2.03;;;1.70;;
6356;SDS011;3211;53.452;-2.264;2022-09-09T15:53:03;1.50;;;1.30;;
6356;SDS011;3211;53.452;-2.264;2022-09-09T15:55:46;5.17;;;1.57;;
6356;SDS011;3211;53.452;-2.264;2022-09-09T15:58:29;2.17;;;1.67;;
6356;SDS011;3211;53.452;-2.264;2022-09-09T16:01:12;2.50;;;1.40;;
6356;SDS011;3211;53.452;-2.264;2022-09-09T16:03:56;1.40;;;1.30;;
6356;SDS011;3211;53.452;-2.264;2022-09-09T16:06:40;2.20;;;1.50;;
6356;SDS011;3211;53.452;-2.264;2022-09-09T16:09:21;2.17;;;1.50;;
6356;SDS011;3211;53.452;-2.264;2022-09-09T16:12:04;3.67;;;1.27;;
6356;SDS011;3211;53.452;-2.264;2022-09-09T16:14:49;2.93;;;1.40;;
6356;SDS011;3211;53.452;-2.264;2022-09-09T16:17:31;2.40;;;1.33;;
6356;SDS011;3211;53.452;-2.264;2022-09-09T16:20:19;2.10;;;1.50;;
6356;SDS011;3211;53.452;-2.264;2022-09-09T16:23:01;1.50;;;1.40;;
6356;SDS011;3211;53.452;-2.264;2022-09-09T16:25:42;2.57;;;1.60;;
6356;SDS011;3211;53.452;-2.264;2022-09-09T16:28:25;1.53;;;1.23;;
6356;SDS011;3211;53.452;-2.264;2022-09-09T16:31:08;7.30;;;1.80;;
6356;SDS011;3211;53.452;-2.264;2022-09-09T16:33:51;1.67;;;1.50;;
6356;SDS011;3211;53.452;-2.264;2022-09-09T16:36:35;1.40;;;1.30;;
6356;SDS011;3211;53.452;-2.264;2022-09-09T16:39:19;1.70;;;1.40;;
6356;SDS011;3211;53.452;-2.264;2022-09-09T16:42:02;1.90;;;1.37;;
6356;SDS011;3211;53.452;-2.264;2022-09-09T16:44:44;3.40;;;1.50;;
6356;SDS011;3211;53.452;-2.264;2022-09-09T16:47:26;3.27;;;1.70;;
6356;SDS011;3211;53.452;-2.264;2022-09-09T16:50:09;2.00;;;1.33;;
6356;SDS011;3211;53.452;-2.264;2022-09-09T16:52:52;6.17;;;1.50;;
6356;SDS011;3211;53.452;-2.264;2022-09-09T16:55:38;2.40;;;1.30;;
6356;SDS011;3211;53.452;-2.264;2022-09-09T16:58:21;1.30;;;1.20;;
6356;SDS011;3211;53.452;-2.264;2022-09-09T17:01:03;2.27;;;1.40;;